sensor_id;sensor_type;location;lat;lon;timestamp;P1;durP1;ratioP1;P2;durP2;ratioP2
31866;SDS011;18431;45.580;-122.680;2022-07-04T00:02:03;1.10;;;1.10;;
31866;SDS011;18431;45.580;-122.680;2022-07-04T00:04:33;1.32;;;0.80;;
31866;SDS011;18431;45.580;-122.680;2022-07-04T00:07:03;0.80;;;0.80;;
31866;SDS011;18431;45.580;-122.680;2022-07-04T00:09:33;0.85;;;0.85;;
31866;SDS011;18431;45.580;-122.680;2022-07-04T00:12:03;1.02;;;1.02;;
31866;SDS011;18431;45.580;-122.680;2022-07-04T00:14:33;0.93;;;0.93;;
31866;SDS011;18431;45.580;-122.680;2022-07-04T00:17:03;0.90;;;0.90;;
31866;SDS011;18431;45.580;-122.680;2022-07-04T00:19:33;1.00;;;1.00;;
31866;SDS011;18431;45.580;-122.680;2022-07-04T00:22:03;1.05;;;0.95;;
31866;SDS011;18431;45.580;-122.680;2022-07-04T00:24:33;1.07;;;1.00;;
31866;SDS011;18431;45.580;-122.680;2022-07-04T00:27:03;0.90;;;0.90;;
31866;SDS011;18431;45.580;-122.680;2022-07-04T00:29:33;0.95;;;0.95;;
31866;SDS011;18431;45.580;-122.680;2022-07-04T00:32:04;0.82;;;0.82;;
31866;SDS011;18431;45.580;-122.680;2022-07-04T00:34:34;0.85;;;0.85;;
31866;SDS011;18431;45.580;-122.680;2022-07-04T00:37:04;0.75;;;0.75;;
31866;SDS011;18431;45.580;-122.680;2022-07-04T00:39:34;0.90;;;0.90;;
31866;SDS011;18431;45.580;-122.680;2022-07-04T00:42:04;0.70;;;0.70;;
31866;SDS011;18431;45.580;-122.680;2022-07-04T00:44:34;0.90;;;0.90;;
31866;SDS011;18431;45.580;-122.680;2022-07-04T00:47:05;0.95;;;0.95;;
31866;SDS011;18431;45.580;-122.680;2022-07-04T00:49:35;0.93;;;0.90;;
31866;SDS011;18431;45.580;-122.680;2022-07-04T00:52:07;0.93;;;0.93;;
31866;SDS011;18431;45.580;-122.680;2022-07-04T00:54:37;0.90;;;0.85;;
31866;SDS011;18431;45.580;-122.680;2022-07-04T00:57:07;1.00;;;0.90;;
31866;SDS011;18431;45.580;-122.680;2022-07-04T00:59:37;1.20;;;1.10;;
31866;SDS011;18431;45.580;-122.680;2022-07-04T01:02:07;0.90;;;0.90;;
31866;SDS011;18431;45.580;-122.680;2022-07-04T01:04:37;0.72;;;0.72;;
31866;SDS011;18431;45.580;-122.680;2022-07-04T01:07:07;0.80;;;0.80;;
31866;SDS011;18431;45.580;-122.680;2022-07-04T01:09:38;0.85;;;0.85;;
31866;SDS011;18431;45.580;-122.680;2022-07-04T01:12:08;1.40;;;0.90;;
31866;SDS011;18431;45.580;-122.680;2022-07-04T01:14:38;0.95;;;0.95;;
31866;SDS011;18431;45.580;-122.680;2022-07-04T01:17:08;1.20;;;1.10;;
31866;SDS011;18431;45.580;-122.680;2022-07-04T01:19:38;1.30;;;1.20;;
31866;SDS011;18431;45.580;-122.680;2022-07-04T01:22:08;1.50;;;1.40;;
31866;SDS011;18431;45.580;-122.680;2022-07-04T01:24:37;1.35;;;1.25;;
31866;SDS011;18431;45.580;-122.680;2022-07-04T01:27:07;1.50;;;1.40;;
31866;SDS011;18431;45.580;-122.680;2022-07-04T01:29:37;1.60;;;1.50;;
31866;SDS011;18431;45.580;-122.680;2022-07-04T01:32:07;2.50;;;2.30;;
31866;SDS011;18431;45.580;-122.680;2022-07-04T01:34:38;2.75;;;2.50;;
31866;SDS011;18431;45.580;-122.680;2022-07-04T01:37:07;3.67;;;3.30;;
31866;SDS011;18431;45.580;-122.680;2022-07-04T01:39:37;4.60;;;3.60;;
31866;SDS011;18431;45.580;-122.680;2022-07-04T01:42:07;4.45;;;4.05;;
31866;SDS011;18431;45.580;-122.680;2022-07-04T01:44:37;4.58;;;3.65;;
31866;SDS011;18431;45.580;-122.680;2022-07-04T01:47:07;4.40;;;3.83;;
31866;SDS011;18431;45.580;-122.680;2022-07-04T01:49:37;4.30;;;3.90;;
31866;SDS011;18431;45.580;-122.680;2022-07-04T01:52:07;4.35;;;3.87;;
31866;SDS011;18431;45.580;-122.680;2022-07-04T01:54:37;4.90;;;3.75;;
31866;SDS011;18431;45.580;-122.680;2022-07-04T01:57:06;4.25;;;3.85;;
31866;SDS011;18431;45.580;-122.680;2022-07-04T01:59:36;7.22;;;3.90;;
31866;SDS011;18431;45.580;-122.680;2022-07-04T02:02:24;4.20;;;3.80;;
31866;SDS011;18431;45.580;-122.680;2022-07-04T02:04:54;4.12;;;3.72;;
31866;SDS011;18431;45.580;-122.680;2022-07-04T02:07:24;3.75;;;3.33;;
31866;SDS011;18431;45.580;-122.680;2022-07-04T02:09:54;3.70;;;3.40;;
31866;SDS011;18431;45.580;-122.680;2022-07-04T02:12:23;3.30;;;3.00;;
31866;SDS011;18431;45.580;-122.680;2022-07-04T02:15:11;3.10;;;2.90;;
31866;SDS011;18431;45.580;-122.680;2022-07-04T02:17:41;3.65;;;3.00;;
31866;SDS011;18431;45.580;-122.680;2022-07-04T02:20:11;3.20;;;2.90;;
31866;SDS011;18431;45.580;-122.680;2022-07-04T02:22:41;3.55;;;2.85;;
31866;SDS011;18431;45.580;-122.680;2022-07-04T02:25:11;3.15;;;2.85;;
31866;SDS011;18431;45.580;-122.680;2022-07-04T02:27:41;2.80;;;2.60;;
31866;SDS011;18431;45.580;-122.680;2022-07-04T02:30:11;2.60;;;2.40;;
31866;SDS011;18431;45.580;-122.680;2022-07-04T02:32:41;2.85;;;2.60;;
31866;SDS011;18431;45.580;-122.680;2022-07-04T02:35:11;2.70;;;2.50;;
31866;SDS011;18431;45.580;-122.680;2022-07-04T02:37:41;2.40;;;2.22;;
31866;SDS011;18431;45.580;-122.680;2022-07-04T02:40:11;2.65;;;2.45;;
31866;SDS011;18431;45.580;-122.680;2022-07-04T02:42:41;2.35;;;2.17;;
31866;SDS011;18431;45.580;-122.680;2022-07-04T02:45:11;3.00;;;2.77;;
31866;SDS011;18431;45.580;-122.680;2022-07-04T02:47:41;2.70;;;2.50;;
31866;SDS011;18431;45.580;-122.680;2022-07-04T02:50:10;2.50;;;2.30;;
31866;SDS011;18431;45.580;-122.680;2022-07-04T02:52:40;2.67;;;2.20;;
31866;SDS011;18431;45.580;-122.680;2022-07-04T02:55:10;2.77;;;2.50;;
31866;SDS011;18431;45.580;-122.680;2022-07-04T02:57:40;2.77;;;2.47;;
31866;SDS011;18431;45.580;-122.680;2022-07-04T03:00:20;2.60;;;2.40;;
31866;SDS011;18431;45.580;-122.680;2022-07-04T03:02:50;2.60;;;2.40;;
31866;SDS011;18431;45.580;-122.680;2022-07-04T03:05:21;2.30;;;2.10;;
31866;SDS011;18431;45.580;-122.680;2022-07-04T03:07:51;2.55;;;2.35;;
31866;SDS011;18431;45.580;-122.680;2022-07-04T03:10:21;2.70;;;2.20;;
31866;SDS011;18431;45.580;-122.680;2022-07-04T03:12:51;2.37;;;2.17;;
31866;SDS011;18431;45.580;-122.680;2022-07-04T03:15:21;2.40;;;2.20;;
31866;SDS011;18431;45.580;-122.680;2022-07-04T03:17:51;2.00;;;1.85;;
31866;SDS011;18431;45.580;-122.680;2022-07-04T03:20:20;2.00;;;1.80;;
31866;SDS011;18431;45.580;-122.680;2022-07-04T03:22:50;2.52;;;1.98;;
31866;SDS011;18431;45.580;-122.680;2022-07-04T03:25:21;1.90;;;1.80;;
31866;SDS011;18431;45.580;-122.680;2022-07-04T03:27:52;3.05;;;2.75;;
31866;SDS011;18431;45.580;-122.680;2022-07-04T03:30:21;7.25;;;5.60;;
31866;SDS011;18431;45.580;-122.680;2022-07-04T03:32:51;8.93;;;6.30;;
31866;SDS011;18431;45.580;-122.680;2022-07-04T03:35:21;8.55;;;6.30;;
31866;SDS011;18431;45.580;-122.680;2022-07-04T03:37:51;10.78;;;7.45;;
31866;SDS011;18431;45.580;-122.680;2022-07-04T03:40:21;8.83;;;6.67;;
31866;SDS011;18431;45.580;-122.680;2022-07-04T03:42:51;9.70;;;7.30;;
31866;SDS011;18431;45.580;-122.680;2022-07-04T03:45:21;10.05;;;6.75;;
31866;SDS011;18431;45.580;-122.680;2022-07-04T03:47:51;9.33;;;6.90;;
31866;SDS011;18431;45.580;-122.680;2022-07-04T03:50:21;9.13;;;6.78;;
31866;SDS011;18431;45.580;-122.680;2022-07-04T03:52:51;9.45;;;6.55;;
31866;SDS011;18431;45.580;-122.680;2022-07-04T03:55:21;7.97;;;5.92;;
31866;SDS011;18431;45.580;-122.680;2022-07-04T03:57:50;8.28;;;6.37;;
31866;SDS011;18431;45.580;-122.680;2022-07-04T04:00:20;9.65;;;6.97;;
31866;SDS011;18431;45.580;-122.680;2022-07-04T04:02:50;8.00;;;5.78;;
31866;SDS011;18431;45.580;-122.680;2022-07-04T04:05:20;8.43;;;5.70;;
31866;SDS011;18431;45.580;-122.680;2022-07-04T04:07:58;7.53;;;5.80;;
31866;SDS011;18431;45.580;-122.680;2022-07-04T04:10:29;7.72;;;5.70;;
31866;SDS011;18431;45.580;-122.680;2022-07-04T04:12:59;8.03;;;5.70;;
31866;SDS011;18431;45.580;-122.680;2022-07-04T04:15:29;6.15;;;5.08;;
31866;SDS011;18431;45.580;-122.680;2022-07-04T04:17:59;6.87;;;5.00;;
31866;SDS011;18431;45.580;-122.680;2022-07-04T04:20:28;6.58;;;4.83;;
31866;SDS011;18431;45.580;-122.680;2022-07-04T04:22:58;6.62;;;4.97;;
31866;SDS011;18431;45.580;-122.680;2022-07-04T04:25:28;5.90;;;4.60;;
31866;SDS011;18431;45.580;-122.680;2022-07-04T04:27:58;6.87;;;4.90;;
31866;SDS011;18431;45.580;-122.680;2022-07-04T04:30:28;6.17;;;4.80;;
31866;SDS011;18431;45.580;-122.680;2022-07-04T04:32:57;6.17;;;3.95;;
31866;SDS011;18431;45.580;-122.680;2022-07-04T04:35:27;7.35;;;4.30;;
31866;SDS011;18431;45.580;-122.680;2022-07-04T04:37:57;6.03;;;4.28;;
31866;SDS011;18431;45.580;-122.680;2022-07-04T04:40:27;6.35;;;4.00;;
31866;SDS011;18431;45.580;-122.680;2022-07-04T04:42:57;5.00;;;3.80;;
31866;SDS011;18431;45.580;-122.680;2022-07-04T04:45:27;6.00;;;4.20;;
31866;SDS011;18431;45.580;-122.680;2022-07-04T04:47:57;4.70;;;3.67;;
31866;SDS011;18431;45.580;-122.680;2022-07-04T04:50:26;4.15;;;3.47;;
31866;SDS011;18431;45.580;-122.680;2022-07-04T04:52:56;5.25;;;3.85;;
31866;SDS011;18431;45.580;-122.680;2022-07-04T04:55:26;3.47;;;3.10;;
31866;SDS011;18431;45.580;-122.680;2022-07-04T04:57:56;3.92;;;3.20;;
31866;SDS011;18431;45.580;-122.680;2022-07-04T05:00:26;3.47;;;3.17;;
31866;SDS011;18431;45.580;-122.680;2022-07-04T05:02:56;3.77;;;2.90;;
31866;SDS011;18431;45.580;-122.680;2022-07-04T05:05:26;3.10;;;2.80;;
31866;SDS011;18431;45.580;-122.680;2022-07-04T05:10:44;3.15;;;2.70;;
31866;SDS011;18431;45.580;-122.680;2022-07-04T05:13:16;2.98;;;2.67;;
31866;SDS011;18431;45.580;-122.680;2022-07-04T05:15:46;3.02;;;2.70;;
31866;SDS011;18431;45.580;-122.680;2022-07-04T05:18:15;4.08;;;2.60;;
31866;SDS011;18431;45.580;-122.680;2022-07-04T05:20:46;3.00;;;2.50;;
31866;SDS011;18431;45.580;-122.680;2022-07-04T05:23:15;2.80;;;2.20;;
31866;SDS011;18431;45.580;-122.680;2022-07-04T05:25:45;3.02;;;2.27;;
31866;SDS011;18431;45.580;-122.680;2022-07-04T05:28:16;3.10;;;2.30;;
31866;SDS011;18431;45.580;-122.680;2022-07-04T05:30:45;2.95;;;2.40;;
31866;SDS011;18431;45.580;-122.680;2022-07-04T05:33:16;2.50;;;2.30;;
31866;SDS011;18431;45.580;-122.680;2022-07-04T05:35:46;2.10;;;2.00;;
31866;SDS011;18431;45.580;-122.680;2022-07-04T05:38:15;2.55;;;2.35;;
31866;SDS011;18431;45.580;-122.680;2022-07-04T05:40:45;2.45;;;2.25;;
31866;SDS011;18431;45.580;-122.680;2022-07-04T05:46:04;2.72;;;2.20;;
31866;SDS011;18431;45.580;-122.680;2022-07-04T05:48:34;2.25;;;2.05;;
31866;SDS011;18431;45.580;-122.680;2022-07-04T05:51:04;2.02;;;1.90;;
31866;SDS011;18431;45.580;-122.680;2022-07-04T05:53:34;2.02;;;1.82;;
31866;SDS011;18431;45.580;-122.680;2022-07-04T05:56:04;1.92;;;1.82;;
31866;SDS011;18431;45.580;-122.680;2022-07-04T05:58:34;1.80;;;1.70;;
31866;SDS011;18431;45.580;-122.680;2022-07-04T06:01:04;1.90;;;1.80;;
31866;SDS011;18431;45.580;-122.680;2022-07-04T06:03:37;1.85;;;1.75;;
31866;SDS011;18431;45.580;-122.680;2022-07-04T06:06:07;2.15;;;1.80;;
31866;SDS011;18431;45.580;-122.680;2022-07-04T06:08:36;1.98;;;1.70;;
31866;SDS011;18431;45.580;-122.680;2022-07-04T06:11:06;1.70;;;1.60;;
31866;SDS011;18431;45.580;-122.680;2022-07-04T06:13:36;1.70;;;1.60;;
31866;SDS011;18431;45.580;-122.680;2022-07-04T06:16:06;1.65;;;1.55;;
31866;SDS011;18431;45.580;-122.680;2022-07-04T06:18:36;1.35;;;1.25;;
31866;SDS011;18431;45.580;-122.680;2022-07-04T06:21:06;1.50;;;1.30;;
31866;SDS011;18431;45.580;-122.680;2022-07-04T06:23:36;3.10;;;1.52;;
31866;SDS011;18431;45.580;-122.680;2022-07-04T06:26:06;1.50;;;1.40;;
31866;SDS011;18431;45.580;-122.680;2022-07-04T06:28:36;1.40;;;1.30;;
31866;SDS011;18431;45.580;-122.680;2022-07-04T06:31:06;1.30;;;1.25;;
31866;SDS011;18431;45.580;-122.680;2022-07-04T06:33:36;1.50;;;1.37;;
31866;SDS011;18431;45.580;-122.680;2022-07-04T06:38:56;1.27;;;1.17;;
31866;SDS011;18431;45.580;-122.680;2022-07-04T06:41:25;1.35;;;1.07;;
31866;SDS011;18431;45.580;-122.680;2022-07-04T06:43:55;1.17;;;1.12;;
31866;SDS011;18431;45.580;-122.680;2022-07-04T06:46:25;1.17;;;1.10;;
31866;SDS011;18431;45.580;-122.680;2022-07-04T06:48:55;0.90;;;0.90;;
31866;SDS011;18431;45.580;-122.680;2022-07-04T06:51:25;1.17;;;1.07;;
31866;SDS011;18431;45.580;-122.680;2022-07-04T06:53:55;1.20;;;1.10;;
31866;SDS011;18431;45.580;-122.680;2022-07-04T06:56:25;1.00;;;1.00;;
31866;SDS011;18431;45.580;-122.680;2022-07-04T06:58:54;1.00;;;0.90;;
31866;SDS011;18431;45.580;-122.680;2022-07-04T07:01:24;1.10;;;1.00;;
31866;SDS011;18431;45.580;-122.680;2022-07-04T07:03:54;1.10;;;1.00;;
31866;SDS011;18431;45.580;-122.680;2022-07-04T07:06:24;0.75;;;0.75;;
31866;SDS011;18431;45.580;-122.680;2022-07-04T07:08:54;0.90;;;0.80;;
31866;SDS011;18431;45.580;-122.680;2022-07-04T07:11:24;0.82;;;0.80;;
31866;SDS011;18431;45.580;-122.680;2022-07-04T07:13:54;1.65;;;0.80;;
31866;SDS011;18431;45.580;-122.680;2022-07-04T07:16:23;0.72;;;0.72;;
31866;SDS011;18431;45.580;-122.680;2022-07-04T07:18:53;0.82;;;0.70;;
31866;SDS011;18431;45.580;-122.680;2022-07-04T07:21:23;0.93;;;0.93;;
31866;SDS011;18431;45.580;-122.680;2022-07-04T07:23:53;0.93;;;0.70;;
31866;SDS011;18431;45.580;-122.680;2022-07-04T07:26:23;1.35;;;0.80;;
31866;SDS011;18431;45.580;-122.680;2022-07-04T07:28:53;0.95;;;0.72;;
31866;SDS011;18431;45.580;-122.680;2022-07-04T07:31:23;1.42;;;0.90;;
31866;SDS011;18431;45.580;-122.680;2022-07-04T07:33:52;0.78;;;0.78;;
31866;SDS011;18431;45.580;-122.680;2022-07-04T07:36:22;0.80;;;0.72;;
31866;SDS011;18431;45.580;-122.680;2022-07-04T07:38:52;0.70;;;0.70;;
31866;SDS011;18431;45.580;-122.680;2022-07-04T07:41:23;0.60;;;0.60;;
31866;SDS011;18431;45.580;-122.680;2022-07-04T07:43:53;0.70;;;0.53;;
31866;SDS011;18431;45.580;-122.680;2022-07-04T07:46:23;0.80;;;0.80;;
31866;SDS011;18431;45.580;-122.680;2022-07-04T07:48:52;0.68;;;0.68;;
31866;SDS011;18431;45.580;-122.680;2022-07-04T07:51:22;0.60;;;0.53;;
31866;SDS011;18431;45.580;-122.680;2022-07-04T07:53:52;0.70;;;0.70;;
31866;SDS011;18431;45.580;-122.680;2022-07-04T07:56:22;0.60;;;0.60;;
31866;SDS011;18431;45.580;-122.680;2022-07-04T07:58:52;0.60;;;0.60;;
31866;SDS011;18431;45.580;-122.680;2022-07-04T08:01:42;0.50;;;0.50;;
31866;SDS011;18431;45.580;-122.680;2022-07-04T08:04:12;0.90;;;0.70;;
31866;SDS011;18431;45.580;-122.680;2022-07-04T08:07:05;1.27;;;0.70;;
31866;SDS011;18431;45.580;-122.680;2022-07-04T08:09:34;0.80;;;0.80;;
31866;SDS011;18431;45.580;-122.680;2022-07-04T08:12:05;0.57;;;0.57;;
31866;SDS011;18431;45.580;-122.680;2022-07-04T08:14:35;0.70;;;0.70;;
31866;SDS011;18431;45.580;-122.680;2022-07-04T08:17:05;0.50;;;0.50;;
31866;SDS011;18431;45.580;-122.680;2022-07-04T08:19:36;0.68;;;0.60;;
31866;SDS011;18431;45.580;-122.680;2022-07-04T08:22:06;0.55;;;0.55;;
31866;SDS011;18431;45.580;-122.680;2022-07-04T08:24:36;0.53;;;0.53;;
31866;SDS011;18431;45.580;-122.680;2022-07-04T08:27:26;0.57;;;0.57;;
31866;SDS011;18431;45.580;-122.680;2022-07-04T08:29:56;0.60;;;0.60;;
31866;SDS011;18431;45.580;-122.680;2022-07-04T08:32:26;0.85;;;0.57;;
31866;SDS011;18431;45.580;-122.680;2022-07-04T08:34:56;0.60;;;0.60;;
31866;SDS011;18431;45.580;-122.680;2022-07-04T08:40:16;0.70;;;0.70;;
31866;SDS011;18431;45.580;-122.680;2022-07-04T08:42:46;0.80;;;0.80;;
31866;SDS011;18431;45.580;-122.680;2022-07-04T08:45:16;0.60;;;0.60;;
31866;SDS011;18431;45.580;-122.680;2022-07-04T08:47:47;0.65;;;0.65;;
31866;SDS011;18431;45.580;-122.680;2022-07-04T08:50:25;0.57;;;0.57;;
31866;SDS011;18431;45.580;-122.680;2022-07-04T08:53:12;0.75;;;0.70;;
31866;SDS011;18431;45.580;-122.680;2022-07-04T08:55:44;0.90;;;0.78;;
31866;SDS011;18431;45.580;-122.680;2022-07-04T08:58:33;0.65;;;0.57;;
31866;SDS011;18431;45.580;-122.680;2022-07-04T09:01:08;0.82;;;0.82;;
31866;SDS011;18431;45.580;-122.680;2022-07-04T09:03:35;0.62;;;0.62;;
31866;SDS011;18431;45.580;-122.680;2022-07-04T09:06:04;0.75;;;0.75;;
31866;SDS011;18431;45.580;-122.680;2022-07-04T09:08:34;1.37;;;0.93;;
31866;SDS011;18431;45.580;-122.680;2022-07-04T09:11:05;0.68;;;0.68;;
31866;SDS011;18431;45.580;-122.680;2022-07-04T09:13:36;0.78;;;0.78;;
31866;SDS011;18431;45.580;-122.680;2022-07-04T09:16:05;0.70;;;0.70;;
31866;SDS011;18431;45.580;-122.680;2022-07-04T09:18:36;1.52;;;0.88;;
31866;SDS011;18431;45.580;-122.680;2022-07-04T09:21:08;0.82;;;0.75;;
31866;SDS011;18431;45.580;-122.680;2022-07-04T09:23:41;0.88;;;0.88;;
31866;SDS011;18431;45.580;-122.680;2022-07-04T09:31:27;0.75;;;0.70;;
31866;SDS011;18431;45.580;-122.680;2022-07-04T09:33:58;0.90;;;0.90;;
31866;SDS011;18431;45.580;-122.680;2022-07-04T09:36:38;0.78;;;0.70;;
31866;SDS011;18431;45.580;-122.680;2022-07-04T09:39:16;0.60;;;0.60;;
31866;SDS011;18431;45.580;-122.680;2022-07-04T09:41:54;1.17;;;0.70;;
31866;SDS011;18431;45.580;-122.680;2022-07-04T09:47:22;1.05;;;0.70;;
31866;SDS011;18431;45.580;-122.680;2022-07-04T09:49:58;0.70;;;0.70;;
31866;SDS011;18431;45.580;-122.680;2022-07-04T09:52:48;0.75;;;0.75;;
31866;SDS011;18431;45.580;-122.680;2022-07-04T09:58:01;0.70;;;0.60;;
31866;SDS011;18431;45.580;-122.680;2022-07-04T10:00:33;0.80;;;0.80;;
31866;SDS011;18431;45.580;-122.680;2022-07-04T10:08:44;0.70;;;0.70;;
31866;SDS011;18431;45.580;-122.680;2022-07-04T10:11:14;1.17;;;0.60;;
31866;SDS011;18431;45.580;-122.680;2022-07-04T10:13:45;0.90;;;0.60;;
31866;SDS011;18431;45.580;-122.680;2022-07-04T10:19:07;0.42;;;0.42;;
31866;SDS011;18431;45.580;-122.680;2022-07-04T10:24:26;0.90;;;0.90;;
31866;SDS011;18431;45.580;-122.680;2022-07-04T10:26:57;0.60;;;0.60;;
31866;SDS011;18431;45.580;-122.680;2022-07-04T10:29:27;0.40;;;0.40;;
31866;SDS011;18431;45.580;-122.680;2022-07-04T10:31:57;0.60;;;0.60;;
31866;SDS011;18431;45.580;-122.680;2022-07-04T10:34:28;0.62;;;0.60;;
31866;SDS011;18431;45.580;-122.680;2022-07-04T10:36:59;0.50;;;0.50;;
31866;SDS011;18431;45.580;-122.680;2022-07-04T10:39:30;0.55;;;0.55;;
31866;SDS011;18431;45.580;-122.680;2022-07-04T10:42:01;0.50;;;0.50;;
31866;SDS011;18431;45.580;-122.680;2022-07-04T10:44:33;0.70;;;0.70;;
31866;SDS011;18431;45.580;-122.680;2022-07-04T10:47:04;1.45;;;0.57;;
31866;SDS011;18431;45.580;-122.680;2022-07-04T10:49:34;0.45;;;0.45;;
31866;SDS011;18431;45.580;-122.680;2022-07-04T10:52:10;0.45;;;0.45;;
31866;SDS011;18431;45.580;-122.680;2022-07-04T10:54:43;0.50;;;0.50;;
31866;SDS011;18431;45.580;-122.680;2022-07-04T10:57:23;0.50;;;0.50;;
31866;SDS011;18431;45.580;-122.680;2022-07-04T11:02:29;0.78;;;0.50;;
31866;SDS011;18431;45.580;-122.680;2022-07-04T11:18:04;0.60;;;0.60;;
31866;SDS011;18431;45.580;-122.680;2022-07-04T11:20:38;0.53;;;0.53;;
31866;SDS011;18431;45.580;-122.680;2022-07-04T11:23:09;0.60;;;0.60;;
31866;SDS011;18431;45.580;-122.680;2022-07-04T11:25:40;0.40;;;0.40;;
31866;SDS011;18431;45.580;-122.680;2022-07-04T11:28:18;0.40;;;0.40;;
31866;SDS011;18431;45.580;-122.680;2022-07-04T11:30:55;0.60;;;0.60;;
31866;SDS011;18431;45.580;-122.680;2022-07-04T11:33:31;0.50;;;0.50;;
31866;SDS011;18431;45.580;-122.680;2022-07-04T11:36:06;0.47;;;0.47;;
31866;SDS011;18431;45.580;-122.680;2022-07-04T11:38:48;0.70;;;0.70;;
31866;SDS011;18431;45.580;-122.680;2022-07-04T11:41:32;0.90;;;0.50;;
31866;SDS011;18431;45.580;-122.680;2022-07-04T11:44:21;0.68;;;0.68;;
31866;SDS011;18431;45.580;-122.680;2022-07-04T11:47:13;0.70;;;0.50;;
31866;SDS011;18431;45.580;-122.680;2022-07-04T11:49:49;0.50;;;0.50;;
31866;SDS011;18431;45.580;-122.680;2022-07-04T11:52:30;0.60;;;0.60;;
31866;SDS011;18431;45.580;-122.680;2022-07-04T11:54:54;0.70;;;0.70;;
31866;SDS011;18431;45.580;-122.680;2022-07-04T11:57:26;0.70;;;0.70;;
31866;SDS011;18431;45.580;-122.680;2022-07-04T12:00:05;0.60;;;0.60;;
31866;SDS011;18431;45.580;-122.680;2022-07-04T12:02:34;0.50;;;0.50;;
31866;SDS011;18431;45.580;-122.680;2022-07-04T12:05:06;0.50;;;0.50;;
31866;SDS011;18431;45.580;-122.680;2022-07-04T12:07:40;0.72;;;0.50;;
31866;SDS011;18431;45.580;-122.680;2022-07-04T12:10:17;0.60;;;0.60;;
31866;SDS011;18431;45.580;-122.680;2022-07-04T12:12:50;0.50;;;0.50;;
31866;SDS011;18431;45.580;-122.680;2022-07-04T12:15:37;0.42;;;0.42;;
31866;SDS011;18431;45.580;-122.680;2022-07-04T12:21:15;0.40;;;0.40;;
31866;SDS011;18431;45.580;-122.680;2022-07-04T12:23:52;0.60;;;0.42;;
31866;SDS011;18431;45.580;-122.680;2022-07-04T12:26:22;0.40;;;0.40;;
31866;SDS011;18431;45.580;-122.680;2022-07-04T12:28:55;0.57;;;0.50;;
31866;SDS011;18431;45.580;-122.680;2022-07-04T12:31:39;0.40;;;0.40;;
31866;SDS011;18431;45.580;-122.680;2022-07-04T12:34:20;0.85;;;0.65;;
31866;SDS011;18431;45.580;-122.680;2022-07-04T12:36:53;0.37;;;0.37;;
31866;SDS011;18431;45.580;-122.680;2022-07-04T12:39:32;0.55;;;0.50;;
31866;SDS011;18431;45.580;-122.680;2022-07-04T12:42:17;0.50;;;0.50;;
31866;SDS011;18431;45.580;-122.680;2022-07-04T12:44:48;0.40;;;0.40;;
31866;SDS011;18431;45.580;-122.680;2022-07-04T12:47:20;0.40;;;0.40;;
31866;SDS011;18431;45.580;-122.680;2022-07-04T12:49:50;0.42;;;0.42;;
31866;SDS011;18431;45.580;-122.680;2022-07-04T12:52:20;0.40;;;0.40;;
31866;SDS011;18431;45.580;-122.680;2022-07-04T12:55:05;0.33;;;0.33;;
31866;SDS011;18431;45.580;-122.680;2022-07-04T12:57:37;0.40;;;0.35;;
31866;SDS011;18431;45.580;-122.680;2022-07-04T13:00:10;0.30;;;0.30;;
31866;SDS011;18431;45.580;-122.680;2022-07-04T13:02:40;0.60;;;0.60;;
31866;SDS011;18431;45.580;-122.680;2022-07-04T13:05:11;0.40;;;0.40;;
31866;SDS011;18431;45.580;-122.680;2022-07-04T13:07:43;0.50;;;0.50;;
31866;SDS011;18431;45.580;-122.680;2022-07-04T13:10:14;0.50;;;0.50;;
31866;SDS011;18431;45.580;-122.680;2022-07-04T13:12:44;0.50;;;0.50;;
31866;SDS011;18431;45.580;-122.680;2022-07-04T13:15:16;0.30;;;0.30;;
31866;SDS011;18431;45.580;-122.680;2022-07-04T13:17:46;0.40;;;0.40;;
31866;SDS011;18431;45.580;-122.680;2022-07-04T13:20:15;0.47;;;0.47;;
31866;SDS011;18431;45.580;-122.680;2022-07-04T13:22:47;0.30;;;0.30;;
31866;SDS011;18431;45.580;-122.680;2022-07-04T13:25:18;0.50;;;0.50;;
31866;SDS011;18431;45.580;-122.680;2022-07-04T13:27:49;0.35;;;0.35;;
31866;SDS011;18431;45.580;-122.680;2022-07-04T13:30:20;0.33;;;0.33;;
31866;SDS011;18431;45.580;-122.680;2022-07-04T13:32:50;0.40;;;0.40;;
31866;SDS011;18431;45.580;-122.680;2022-07-04T13:35:20;0.40;;;0.40;;
31866;SDS011;18431;45.580;-122.680;2022-07-04T13:37:51;0.40;;;0.40;;
31866;SDS011;18431;45.580;-122.680;2022-07-04T13:40:21;0.50;;;0.50;;
31866;SDS011;18431;45.580;-122.680;2022-07-04T13:42:53;0.30;;;0.30;;
31866;SDS011;18431;45.580;-122.680;2022-07-04T13:45:28;0.40;;;0.40;;
31866;SDS011;18431;45.580;-122.680;2022-07-04T13:47:59;0.40;;;0.30;;
31866;SDS011;18431;45.580;-122.680;2022-07-04T13:50:31;0.50;;;0.50;;
31866;SDS011;18431;45.580;-122.680;2022-07-04T13:53:07;0.40;;;0.40;;
31866;SDS011;18431;45.580;-122.680;2022-07-04T13:55:35;0.40;;;0.40;;
31866;SDS011;18431;45.580;-122.680;2022-07-04T13:58:05;0.40;;;0.40;;
31866;SDS011;18431;45.580;-122.680;2022-07-04T14:00:36;0.40;;;0.40;;
31866;SDS011;18431;45.580;-122.680;2022-07-04T14:03:08;0.50;;;0.50;;
31866;SDS011;18431;45.580;-122.680;2022-07-04T14:05:43;0.50;;;0.40;;
31866;SDS011;18431;45.580;-122.680;2022-07-04T14:08:12;0.55;;;0.47;;
31866;SDS011;18431;45.580;-122.680;2022-07-04T14:10:43;0.50;;;0.50;;
31866;SDS011;18431;45.580;-122.680;2022-07-04T14:13:15;0.70;;;0.50;;
31866;SDS011;18431;45.580;-122.680;2022-07-04T14:15:46;0.80;;;0.45;;
31866;SDS011;18431;45.580;-122.680;2022-07-04T14:18:16;0.40;;;0.40;;
31866;SDS011;18431;45.580;-122.680;2022-07-04T14:20:46;0.60;;;0.30;;
31866;SDS011;18431;45.580;-122.680;2022-07-04T14:23:17;0.37;;;0.37;;
31866;SDS011;18431;45.580;-122.680;2022-07-04T14:28:55;0.45;;;0.40;;
31866;SDS011;18431;45.580;-122.680;2022-07-04T14:31:26;0.40;;;0.40;;
31866;SDS011;18431;45.580;-122.680;2022-07-04T14:33:56;0.40;;;0.40;;
31866;SDS011;18431;45.580;-122.680;2022-07-04T14:36:26;0.47;;;0.47;;
31866;SDS011;18431;45.580;-122.680;2022-07-04T14:38:56;0.33;;;0.33;;
31866;SDS011;18431;45.580;-122.680;2022-07-04T14:41:29;0.40;;;0.40;;
31866;SDS011;18431;45.580;-122.680;2022-07-04T14:43:59;1.07;;;0.50;;
31866;SDS011;18431;45.580;-122.680;2022-07-04T14:46:31;0.50;;;0.50;;
31866;SDS011;18431;45.580;-122.680;2022-07-04T14:49:00;0.93;;;0.30;;
31866;SDS011;18431;45.580;-122.680;2022-07-04T14:51:30;0.42;;;0.42;;
31866;SDS011;18431;45.580;-122.680;2022-07-04T14:54:01;0.50;;;0.50;;
31866;SDS011;18431;45.580;-122.680;2022-07-04T14:56:31;0.35;;;0.35;;
31866;SDS011;18431;45.580;-122.680;2022-07-04T14:59:01;0.60;;;0.60;;
31866;SDS011;18431;45.580;-122.680;2022-07-04T15:01:31;0.37;;;0.37;;
31866;SDS011;18431;45.580;-122.680;2022-07-04T15:04:02;0.50;;;0.50;;
31866;SDS011;18431;45.580;-122.680;2022-07-04T15:06:32;0.53;;;0.53;;
31866;SDS011;18431;45.580;-122.680;2022-07-04T15:09:07;0.50;;;0.50;;
31866;SDS011;18431;45.580;-122.680;2022-07-04T15:11:33;0.50;;;0.50;;
31866;SDS011;18431;45.580;-122.680;2022-07-04T15:14:03;0.50;;;0.50;;
31866;SDS011;18431;45.580;-122.680;2022-07-04T15:16:33;0.60;;;0.60;;
31866;SDS011;18431;45.580;-122.680;2022-07-04T15:19:03;0.57;;;0.57;;
31866;SDS011;18431;45.580;-122.680;2022-07-04T15:21:34;1.02;;;0.60;;
31866;SDS011;18431;45.580;-122.680;2022-07-04T15:24:22;0.50;;;0.50;;
31866;SDS011;18431;45.580;-122.680;2022-07-04T15:26:52;0.60;;;0.60;;
31866;SDS011;18431;45.580;-122.680;2022-07-04T15:29:22;0.40;;;0.40;;